WXForecasting.com
The Webcam is now online in Aberdeen, SD. The weather station will be installed in the coming weeks.
Aberdeen, SD - Weather Station Data
 
Daily Summary for May 06, 2016 Units:  English    Metric   Both
« Previous Day
Next Day »
Daily Weekly Monthly Yearly Custom
  Current: High: Low: Average:
Temperature: 72.5 °F 72.5 °F 52.9 °F 59.2 °F
Dew Point: 58.3 °F 58.5 °F 48.9 °F 51.9 °F
Humidity: 61 % 90 % 61 % 77 %
Wind Speed: 3.2 mph 4.2 mph 1.1 mph 2.9 mph
Wind Gust: -999.0 mph -999.0 mph - -
Wind:WSW - - SSW
Pressure: 29.87 in 29.90 in 29.84 in -
Precipitation: 0.00 in      
Historical Graphs
 
 
Tabular Data for May 06, 2016
Time Temperature Dew Point Pressure Wind Wind Speed Wind Gust Humidity Rainfall Rate (Hourly) solar Conditions
00:14 60.3 °F 48.9 °F 29.89 in SSE 2.7 mph -999.0 mph 66 % 0 in Acu-Link.com W/m2
00:29 59.9 °F 48.9 °F 29.89 in South 1.7 mph -999.0 mph 67 % 0 in Acu-Link.com W/m2
00:44 59.5 °F 49.3 °F 29.90 in SSE 2.2 mph -999.0 mph 69 % 0 in Acu-Link.com W/m2
01:00 59.5 °F 49.7 °F 29.88 in ESE 3.2 mph -999.0 mph 70 % 0 in Acu-Link.com W/m2
01:15 59.4 °F 50.0 °F 29.88 in SSE 2.2 mph -999.0 mph 71 % 0 in Acu-Link.com W/m2
01:45 59.2 °F 50.5 °F 29.88 in SSE 2.7 mph -999.0 mph 73 % 0 in Acu-Link.com W/m2
02:02 59.4 °F 50.7 °F 29.88 in South 4.2 mph -999.0 mph 73 % 0 in Acu-Link.com W/m2
02:17 59.5 °F 50.8 °F 29.87 in East 3.7 mph -999.0 mph 73 % 0 in Acu-Link.com W/m2
02:32 60.3 °F 51.2 °F 29.87 in South 3.7 mph -999.0 mph 72 % 0 in Acu-Link.com W/m2
02:47 60.1 °F 51.0 °F 29.86 in South 4.2 mph -999.0 mph 72 % 0 in Acu-Link.com W/m2
03:02 59.2 °F 50.9 °F 29.86 in SSE 2.2 mph -999.0 mph 74 % 0 in Acu-Link.com W/m2
03:17 58.3 °F 50.4 °F 29.86 in ESE 2.2 mph -999.0 mph 75 % 0 in Acu-Link.com W/m2
03:48 57.9 °F 50.7 °F 29.86 in South 3.2 mph -999.0 mph 77 % 0 in Acu-Link.com W/m2
04:03 57.6 °F 50.8 °F 29.85 in SSW 3.7 mph -999.0 mph 78 % 0 in Acu-Link.com W/m2
04:18 57.2 °F 50.7 °F 29.86 in SSE 1.7 mph -999.0 mph 79 % 0 in Acu-Link.com W/m2
04:33 56.3 °F 50.5 °F 29.85 in SSW 1.7 mph -999.0 mph 81 % 0 in Acu-Link.com W/m2
04:48 55.9 °F 50.5 °F 29.85 in SSE 2.2 mph -999.0 mph 82 % 0 in Acu-Link.com W/m2
05:03 55.6 °F 50.5 °F 29.85 in South 2.2 mph -999.0 mph 83 % 0 in Acu-Link.com W/m2
05:19 55.0 °F 50.3 °F 29.85 in SSW 2.7 mph -999.0 mph 84 % 0 in Acu-Link.com W/m2
05:34 54.9 °F 50.5 °F 29.84 in SSW 3.2 mph -999.0 mph 85 % 0 in Acu-Link.com W/m2
05:49 54.3 °F 50.2 °F 29.84 in South 3.7 mph -999.0 mph 86 % 0 in Acu-Link.com W/m2
06:19 53.4 °F 50.2 °F 29.85 in SW 3.7 mph -999.0 mph 89 % 0 in Acu-Link.com W/m2
06:34 53.1 °F 49.9 °F 29.85 in South 2.7 mph -999.0 mph 89 % 0 in Acu-Link.com W/m2
06:49 52.9 °F 50.0 °F 29.85 in South 2.2 mph -999.0 mph 90 % 0 in Acu-Link.com W/m2
07:05 53.6 °F 50.7 °F 29.85 in South 2.2 mph -999.0 mph 90 % 0 in Acu-Link.com W/m2
07:20 55.0 °F 51.2 °F 29.86 in West 1.1 mph -999.0 mph 87 % 0 in Acu-Link.com W/m2
07:35 56.7 °F 52.6 °F 29.86 in WNW 2.7 mph -999.0 mph 86 % 0 in Acu-Link.com W/m2
07:50 57.7 °F 53.5 °F 29.86 in West 2.7 mph -999.0 mph 86 % 0 in Acu-Link.com W/m2
08:05 59.2 °F 54.0 °F 29.87 in West 4.2 mph -999.0 mph 83 % 0 in Acu-Link.com W/m2
08:21 59.9 °F 54.1 °F 29.87 in West 3.2 mph -999.0 mph 81 % 0 in Acu-Link.com W/m2
08:36 63.1 °F 55.8 °F 29.87 in West 4.2 mph -999.0 mph 77 % 0 in Acu-Link.com W/m2
08:51 66.7 °F 57.0 °F 29.87 in WSW 3.7 mph -999.0 mph 71 % 0 in Acu-Link.com W/m2
09:06 67.6 °F 57.5 °F 29.87 in SSW 2.7 mph -999.0 mph 70 % 0 in Acu-Link.com W/m2
09:21 69.1 °F 58.5 °F 29.87 in WSW 2.7 mph -999.0 mph 69 % 0 in Acu-Link.com W/m2
09:36 71.2 °F 57.9 °F 29.87 in SSW 4.2 mph -999.0 mph 63 % 0 in Acu-Link.com W/m2
09:52 72.5 °F 58.3 °F 29.87 in WSW 3.2 mph -999.0 mph 61 % 0 in Acu-Link.com W/m2
Compliments of Weather Underground - 2.5 mb

24 Visitors online right now
Max visitors today: 25 at 09:24 am EDT
This month: 29 at 05-05-2016 06:41 pm EDT
This year: 77 at 01-01-2016 11:56 pm EST
All time: 104 at 01-04-2012 03:34 am EST
See Who is Online